Wylie's Hourly Summary for Thursday, August 4, 2022
Hour Temp
(f)
RH
(%)
Solar Rad.
(MJ/m2)
Rainfall
(in)
Wind
(mph)
Battery
(volts)
8/4/2022 12:00 AM 91 41 0 0 4.08 12.6
8/4/2022 1:00 AM 90 43 0 0 5.62 12.58
8/4/2022 2:00 AM 89 44 0 0 6.21 12.58
8/4/2022 3:00 AM 86 47 0 0 5.39 12.3
8/4/2022 4:00 AM 85 50 0 0 5.44 12.27
8/4/2022 5:00 AM 84 52 0 0 7.35 12.23
8/4/2022 6:00 AM 82 56 0 0 7.23 12.19
8/4/2022 7:00 AM 81 61 0.01 0 6.65 12.16
8/4/2022 8:00 AM 80 67 0.29 0 6.62 12.16
8/4/2022 9:00 AM 82 65 0.9 0 8.13 12.15
8/4/2022 10:00 AM 84 60 1.57 0 8.8 12.29
8/4/2022 11:00 AM 87 53 2.15 0 7.11 12.77
8/4/2022 12:00 PM 90 48 2.55 0 6.71 12.77
8/4/2022 1:00 PM 92 46 2.72 0 7.5 12.74
8/4/2022 2:00 PM 93 40 2.72 0 7.54 12.74
8/4/2022 3:00 PM 95 35 2.15 0 6.34 12.74
8/4/2022 4:00 PM 97 32 1.9 0 5.93 12.74
8/4/2022 5:00 PM 97 30 1.27 0 5.37 12.75
8/4/2022 6:00 PM 98 29 1.05 0 5.68 12.67
8/4/2022 7:00 PM 98 30 0.78 0 6.83 12.9
8/4/2022 8:00 PM 97 29 0.32 0 6.35 12.74
8/4/2022 9:00 PM 94 34 0.01 0 3.96 12.66
8/4/2022 10:00 PM 92 37 0 0 1.65 12.62
8/4/2022 11:00 PM 90 40 0 0 2.02 12.61
Data Summary 89 44 20.39 0.00 6.02 12.54